Time,TemperatureF,DewpointF,PressureIn,WindDirection,WindDirectionDegrees,WindSpeedMPH,WindSpeedGustMPH,Humidity,HourlyPrecipIn,Conditions,Clouds,dailyrainin,SoftwareType,DateUTC
2013-10-17 00:14:00,51.0,48.0,27.65,NNE,28,1.0,1.0,91,0.00,,,0.00,,2013-10-17 04:14:00,
2013-10-17 00:24:00,51.0,48.0,27.66,NNW,338,0.0,1.0,89,0.00,,,0.00,,2013-10-17 04:24:00,
2013-10-17 00:43:00,51.0,48.0,27.65,ESE,110,1.0,2.0,89,0.00,,,0.00,,2013-10-17 04:43:00,
2013-10-17 00:54:00,52.0,49.0,27.65,ESE,121,0.0,4.0,89,0.00,,,0.00,,2013-10-17 04:54:00,
2013-10-17 01:13:00,52.0,49.0,27.65,ESE,113,1.0,2.0,89,0.00,,,0.00,,2013-10-17 05:13:00,
2013-10-17 01:23:00,52.0,49.0,27.64,East,101,1.0,1.0,89,0.00,,,0.00,,2013-10-17 05:23:00,
2013-10-17 01:42:00,52.0,49.0,27.64,East,101,0.0,0.0,90,0.00,,,0.00,,2013-10-17 05:42:00,
2013-10-17 01:52:00,51.0,48.0,27.64,ESE,102,0.0,1.0,91,0.00,,,0.00,,2013-10-17 05:52:00,
2013-10-17 02:13:00,51.0,48.0,27.65,East,100,0.0,2.0,91,0.00,,,0.00,,2013-10-17 06:13:00,
2013-10-17 02:22:00,51.0,48.0,27.65,West,270,0.0,0.0,91,0.00,,,0.00,,2013-10-17 06:22:00,
2013-10-17 02:42:00,52.0,49.0,27.64,West,271,0.0,1.0,91,0.00,,,0.00,,2013-10-17 06:42:00,
2013-10-17 02:52:00,52.0,50.0,27.64,West,270,0.0,0.0,92,0.00,,,0.00,,2013-10-17 06:52:00,
2013-10-17 03:02:00,52.0,50.0,27.64,West,270,0.0,0.0,92,0.00,,,0.00,,2013-10-17 07:02:00,
2013-10-17 03:11:00,52.0,49.0,27.63,West,271,0.0,1.0,91,0.00,,,0.00,,2013-10-17 07:11:00,
2013-10-17 03:22:00,51.0,49.0,27.63,West,271,0.0,0.0,93,0.00,,,0.00,,2013-10-17 07:22:00,
2013-10-17 03:43:00,51.0,49.0,27.62,NW,322,0.0,1.0,93,0.00,,,0.00,,2013-10-17 07:43:00,
2013-10-17 03:52:00,50.0,48.0,27.61,NW,322,0.0,1.0,94,0.00,,,0.00,,2013-10-17 07:52:00,
2013-10-17 04:11:00,50.0,48.0,27.61,NW,322,0.0,1.0,94,0.00,,,0.00,,2013-10-17 08:11:00,
2013-10-17 04:22:00,50.0,49.0,27.61,NW,322,0.0,0.0,95,0.00,,,0.00,,2013-10-17 08:22:00,
2013-10-17 04:42:00,51.0,50.0,27.61,NW,321,0.0,1.0,96,0.00,,,0.00,,2013-10-17 08:42:00,
2013-10-17 04:52:00,51.0,50.0,27.61,NW,321,0.0,0.0,95,0.00,,,0.00,,2013-10-17 08:52:00,
2013-10-17 05:11:00,51.0,50.0,27.61,NW,321,0.0,1.0,95,0.00,,,0.00,,2013-10-17 09:11:00,
2013-10-17 05:22:00,51.0,50.0,27.61,NNW,329,0.0,1.0,95,0.00,,,0.00,,2013-10-17 09:22:00,
2013-10-17 05:43:00,50.0,49.0,27.61,NNW,347,0.0,1.0,95,0.00,,,0.00,,2013-10-17 09:43:00,
2013-10-17 05:53:00,50.0,49.0,27.60,East,98,0.0,1.0,95,0.00,,,0.00,,2013-10-17 09:53:00,
2013-10-17 06:12:00,50.0,49.0,27.62,SW,222,0.0,2.0,95,0.00,,,0.00,,2013-10-17 10:12:00,
2013-10-17 06:23:00,50.0,49.0,27.62,SW,221,0.0,2.0,96,0.00,,,0.00,,2013-10-17 10:23:00,
2013-10-17 06:42:00,50.0,49.0,27.62,SW,222,0.0,1.0,96,0.00,,,0.00,,2013-10-17 10:42:00,
2013-10-17 06:53:00,50.0,49.0,27.61,SW,222,0.0,0.0,96,0.00,,,0.00,,2013-10-17 10:53:00,
2013-10-17 07:12:00,50.0,49.0,27.61,SW,222,0.0,0.0,96,0.00,,,0.00,,2013-10-17 11:12:00,
2013-10-17 07:22:00,50.0,49.0,27.61,SSE,150,1.0,1.0,96,0.00,,,0.00,,2013-10-17 11:22:00,
2013-10-17 07:42:00,50.0,49.0,27.62,SE,136,0.0,1.0,96,0.00,,,0.00,,2013-10-17 11:42:00,
2013-10-17 07:52:00,50.0,49.0,27.62,SE,137,0.0,1.0,97,0.00,,,0.00,,2013-10-17 11:52:00,
2013-10-17 08:12:00,50.0,49.0,27.63,SE,135,0.0,1.0,96,0.00,,,0.00,,2013-10-17 12:12:00,
2013-10-17 08:22:00,51.0,50.0,27.63,ESE,120,0.0,2.0,97,0.00,,,0.00,,2013-10-17 12:22:00,
2013-10-17 08:42:00,51.0,50.0,27.63,ESE,120,0.0,1.0,96,0.00,,,0.00,,2013-10-17 12:42:00,
2013-10-17 08:52:00,51.0,50.0,27.63,ESE,120,0.0,1.0,96,0.00,,,0.00,,2013-10-17 12:52:00,
2013-10-17 09:11:00,52.0,51.0,27.63,ESE,120,0.0,1.0,95,0.00,,,0.00,,2013-10-17 13:11:00,
2013-10-17 09:22:00,55.0,53.0,27.63,ESE,121,0.0,1.0,94,0.00,,,0.00,,2013-10-17 13:22:00,
2013-10-17 09:42:00,58.0,54.0,27.63,WSW,248,1.0,2.0,88,0.00,,,0.00,,2013-10-17 13:42:00,
2013-10-17 09:52:00,58.0,54.0,27.62,WSW,256,1.0,3.0,86,0.00,,,0.00,,2013-10-17 13:52:00,
2013-10-17 10:11:00,59.0,54.0,27.62,SSW,212,1.0,3.0,84,0.00,,,0.00,,2013-10-17 14:11:00,
2013-10-17 10:42:00,62.0,55.0,27.62,SSW,206,2.0,5.0,78,0.00,,,0.00,,2013-10-17 14:42:00,
2013-10-17 10:52:00,62.0,55.0,27.61,SSE,160,2.0,6.0,77,0.00,,,0.00,,2013-10-17 14:52:00,
2013-10-17 11:11:00,63.0,54.0,27.61,WSW,243,4.0,6.0,72,0.00,,,0.00,,2013-10-17 15:11:00,
2013-10-17 11:43:00,64.0,52.0,27.61,WSW,257,3.0,8.0,66,0.00,,,0.00,,2013-10-17 15:43:00,
2013-10-17 11:54:00,63.0,52.0,27.60,West,262,1.0,5.0,68,0.00,,,0.00,,2013-10-17 15:54:00,
2013-10-17 12:12:00,62.0,52.0,27.60,WSW,257,2.0,5.0,69,0.00,,,0.00,,2013-10-17 16:12:00,
2013-10-17 12:23:00,64.0,52.0,27.60,SSW,198,4.0,8.0,66,0.00,,,0.00,,2013-10-17 16:23:00,
2013-10-17 12:42:00,65.0,52.0,27.59,SSE,158,3.0,7.0,62,0.00,,,0.00,,2013-10-17 16:42:00,
2013-10-17 12:54:00,65.0,51.0,27.59,WSW,248,3.0,6.0,61,0.00,,,0.00,,2013-10-17 16:54:00,
2013-10-17 13:12:00,64.0,52.0,27.59,WSW,253,1.0,3.0,64,0.00,,,0.00,,2013-10-17 17:12:00,
2013-10-17 13:42:00,66.0,49.0,27.58,West,263,6.0,13.0,55,0.00,,,0.00,,2013-10-17 17:42:00,
2013-10-17 13:53:00,68.0,51.0,27.57,WNW,283,4.0,9.0,54,0.00,,,0.00,,2013-10-17 17:53:00,
2013-10-17 14:12:00,67.0,49.0,27.57,WSW,242,5.0,11.0,52,0.00,,,0.00,,2013-10-17 18:12:00,
2013-10-17 14:22:00,67.0,49.0,27.56,SSW,212,3.0,7.0,53,0.00,,,0.00,,2013-10-17 18:22:00,
2013-10-17 14:42:00,67.0,50.0,27.57,West,275,3.0,8.0,55,0.00,,,0.00,,2013-10-17 18:42:00,
2013-10-17 14:52:00,68.0,50.0,27.57,West,267,2.0,7.0,52,0.00,,,0.00,,2013-10-17 18:52:00,
2013-10-17 15:12:00,68.0,50.0,27.57,SW,231,5.0,9.0,52,0.00,,,0.00,,2013-10-17 19:12:00,
2013-10-17 15:22:00,67.0,50.0,27.57,SSE,165,4.0,9.0,55,0.00,,,0.00,,2013-10-17 19:22:00,
2013-10-17 15:42:00,67.0,49.0,27.57,WSW,244,4.0,9.0,52,0.00,,,0.00,,2013-10-17 19:42:00,
2013-10-17 15:53:00,67.0,50.0,27.56,WSW,245,3.0,5.0,54,0.00,,,0.00,,2013-10-17 19:53:00,
2013-10-17 16:11:00,67.0,49.0,27.56,West,281,2.0,7.0,53,0.00,,,0.00,,2013-10-17 20:11:00,
2013-10-17 16:22:00,67.0,49.0,27.56,West,259,1.0,8.0,53,0.00,,,0.00,,2013-10-17 20:22:00,
2013-10-17 16:42:00,66.0,49.0,27.56,SW,224,3.0,6.0,54,0.00,,,0.00,,2013-10-17 20:42:00,
2013-10-17 16:52:00,66.0,49.0,27.55,NW,312,1.0,5.0,55,0.00,,,0.00,,2013-10-17 20:52:00,
2013-10-17 17:12:00,65.0,48.0,27.55,SW,236,3.0,7.0,55,0.00,,,0.00,,2013-10-17 21:12:00,
2013-10-17 17:22:00,65.0,49.0,27.55,SW,235,0.0,3.0,56,0.00,,,0.00,,2013-10-17 21:22:00,
2013-10-17 17:44:00,65.0,49.0,27.55,WSW,242,0.0,2.0,57,0.00,,,0.00,,2013-10-17 21:44:00,
2013-10-17 17:54:00,64.0,49.0,27.56,West,272,0.0,2.0,58,0.00,,,0.00,,2013-10-17 21:54:00,
2013-10-17 18:14:00,61.0,48.0,27.56,West,274,0.0,1.0,63,0.00,,,0.00,,2013-10-17 22:14:00,
2013-10-17 18:24:00,60.0,49.0,27.56,WNW,303,0.0,2.0,66,0.00,,,0.00,,2013-10-17 22:24:00,
2013-10-17 18:43:00,59.0,48.0,27.56,WSW,256,0.0,2.0,68,0.00,,,0.00,,2013-10-17 22:43:00,
2013-10-17 18:53:00,58.0,47.0,27.56,WSW,248,0.0,1.0,68,0.00,,,0.00,,2013-10-17 22:53:00,
2013-10-17 19:13:00,57.0,47.0,27.56,South,191,0.0,0.0,69,0.00,,,0.00,,2013-10-17 23:13:00,
2013-10-17 19:22:00,57.0,47.0,27.56,South,191,0.0,1.0,69,0.00,,,0.00,,2013-10-17 23:22:00,
2013-10-17 19:43:00,55.0,47.0,27.56,South,191,0.0,0.0,75,0.00,,,0.00,,2013-10-17 23:43:00,
2013-10-17 19:53:00,55.0,47.0,27.55,South,190,0.0,1.0,73,0.00,,,0.00,,2013-10-17 23:53:00,
2013-10-17 20:12:00,55.0,48.0,27.55,South,190,0.0,1.0,76,0.00,,,0.00,,2013-10-18 00:12:00,
2013-10-17 20:22:00,54.0,47.0,27.55,South,190,0.0,1.0,78,0.00,,,0.00,,2013-10-18 00:22:00,
2013-10-17 20:42:00,53.0,47.0,27.55,South,174,0.0,1.0,81,0.00,,,0.00,,2013-10-18 00:42:00,
2013-10-17 20:53:00,53.0,48.0,27.54,SSE,163,0.0,1.0,82,0.00,,,0.00,,2013-10-18 00:53:00,
2013-10-17 21:12:00,52.0,47.0,27.54,SSE,163,1.0,1.0,83,0.00,,,0.00,,2013-10-18 01:12:00,
2013-10-17 21:22:00,51.0,47.0,27.54,SW,222,1.0,2.0,85,0.00,,,0.00,,2013-10-18 01:22:00,
2013-10-17 21:42:00,51.0,47.0,27.53,ESE,104,0.0,1.0,86,0.00,,,0.00,,2013-10-18 01:42:00,
2013-10-17 21:53:00,51.0,47.0,27.52,ESE,104,1.0,2.0,86,0.00,,,0.00,,2013-10-18 01:53:00,
2013-10-17 22:11:00,51.0,47.0,27.51,ESE,104,0.0,1.0,86,0.00,,,0.00,,2013-10-18 02:11:00,
2013-10-17 22:22:00,50.0,46.0,27.51,East,101,1.0,2.0,87,0.00,,,0.00,,2013-10-18 02:22:00,
2013-10-17 22:42:00,50.0,46.0,27.51,ESE,102,0.0,1.0,87,0.00,,,0.00,,2013-10-18 02:42:00,
2013-10-17 22:52:00,50.0,47.0,27.50,East,100,1.0,1.0,88,0.00,,,0.00,,2013-10-18 02:52:00,
2013-10-17 23:11:00,50.0,47.0,27.48,East,95,0.0,1.0,88,0.00,,,0.00,,2013-10-18 03:11:00,
2013-10-17 23:22:00,50.0,47.0,27.48,East,96,1.0,1.0,88,0.00,,,0.00,,2013-10-18 03:22:00,
2013-10-17 23:55:00,51.0,49.0,27.52,West,275,1.0,2.0,93,0.04,,,0.04,,2013-10-18 03:55:00,